sensor_id;sensor_type;location;lat;lon;timestamp;pressure;altitude;pressure_sealevel;temperature;humidity
72857;BME280;62742;52.136;4.500;2023-02-15T00:01:56;103031.78;;;2.61;91.76
72857;BME280;62742;52.136;4.500;2023-02-15T00:04:25;103027.94;;;2.71;90.70
72857;BME280;62742;52.136;4.500;2023-02-15T00:07:13;103025.50;;;2.25;90.77
72857;BME280;62742;52.136;4.500;2023-02-15T00:09:42;103014.06;;;2.21;91.84
72857;BME280;62742;52.136;4.500;2023-02-15T00:12:10;103015.56;;;2.01;92.50
72857;BME280;62742;52.136;4.500;2023-02-15T00:14:37;103012.22;;;1.87;93.10
72857;BME280;62742;52.136;4.500;2023-02-15T00:17:03;103014.72;;;1.86;94.02
72857;BME280;62742;52.136;4.500;2023-02-15T00:19:30;103012.78;;;1.82;94.68
72857;BME280;62742;52.136;4.500;2023-02-15T00:21:57;103014.91;;;1.89;94.93
72857;BME280;62742;52.136;4.500;2023-02-15T00:24:23;103003.84;;;1.92;95.14
72857;BME280;62742;52.136;4.500;2023-02-15T00:26:50;103002.91;;;1.91;95.27
72857;BME280;62742;52.136;4.500;2023-02-15T00:29:18;103006.94;;;1.86;95.04
72857;BME280;62742;52.136;4.500;2023-02-15T00:31:46;102998.69;;;1.77;94.85
72857;BME280;62742;52.136;4.500;2023-02-15T00:34:18;102996.88;;;1.76;95.08
72857;BME280;62742;52.136;4.500;2023-02-15T00:36:47;102996.88;;;1.76;94.99
72857;BME280;62742;52.136;4.500;2023-02-15T00:39:14;102999.19;;;1.86;94.82
72857;BME280;62742;52.136;4.500;2023-02-15T00:41:42;102994.47;;;2.10;93.73
72857;BME280;62742;52.136;4.500;2023-02-15T00:44:09;102995.50;;;1.97;93.36
72857;BME280;62742;52.136;4.500;2023-02-15T00:46:36;102997.41;;;1.85;93.98
72857;BME280;62742;52.136;4.500;2023-02-15T00:49:04;102996.78;;;1.74;94.40
72857;BME280;62742;52.136;4.500;2023-02-15T00:51:32;102994.94;;;1.72;94.98
72857;BME280;62742;52.136;4.500;2023-02-15T00:53:58;102996.88;;;1.76;95.73
72857;BME280;62742;52.136;4.500;2023-02-15T00:56:25;102996.38;;;1.66;95.05
72857;BME280;62742;52.136;4.500;2023-02-15T00:58:51;102987.28;;;1.58;94.97
72857;BME280;62742;52.136;4.500;2023-02-15T01:01:19;102987.41;;;1.45;94.17
72857;BME280;62742;52.136;4.500;2023-02-15T01:03:47;102980.09;;;1.38;94.12
72857;BME280;62742;52.136;4.500;2023-02-15T01:06:15;102985.09;;;1.35;94.00
72857;BME280;62742;52.136;4.500;2023-02-15T01:08:43;102985.19;;;1.21;93.85
72857;BME280;62742;52.136;4.500;2023-02-15T01:11:14;102977.09;;;1.15;94.10
72857;BME280;62742;52.136;4.500;2023-02-15T01:13:53;102976.91;;;1.12;94.55
72857;BME280;62742;52.136;4.500;2023-02-15T01:16:22;102981.81;;;1.07;94.36
72857;BME280;62742;52.136;4.500;2023-02-15T01:18:50;102979.94;;;1.05;94.83
72857;BME280;62742;52.136;4.500;2023-02-15T01:21:19;102976.97;;;0.99;94.23
72857;BME280;62742;52.136;4.500;2023-02-15T01:23:47;102966.28;;;0.92;93.61
72857;BME280;62742;52.136;4.500;2023-02-15T01:26:15;102961.47;;;0.84;93.95
72857;BME280;62742;52.136;4.500;2023-02-15T01:28:42;102964.13;;;0.85;94.47
72857;BME280;62742;52.136;4.500;2023-02-15T01:31:15;102962.63;;;0.89;95.07
72857;BME280;62742;52.136;4.500;2023-02-15T01:33:43;102961.38;;;0.82;95.17
72857;BME280;62742;52.136;4.500;2023-02-15T01:36:09;102967.34;;;0.81;95.47
72857;BME280;62742;52.136;4.500;2023-02-15T01:38:36;102959.50;;;0.80;95.28
72857;BME280;62742;52.136;4.500;2023-02-15T01:41:03;102959.88;;;0.86;94.28
72857;BME280;62742;52.136;4.500;2023-02-15T01:43:51;102957.53;;;0.76;93.67
72857;BME280;62742;52.136;4.500;2023-02-15T01:46:24;102960.03;;;0.74;94.40
72857;BME280;62742;52.136;4.500;2023-02-15T01:49:15;102954.34;;;0.95;92.98
72857;BME280;62742;52.136;4.500;2023-02-15T01:51:46;102951.44;;;0.75;92.65
72857;BME280;62742;52.136;4.500;2023-02-15T01:54:32;102948.06;;;0.61;93.34
72857;BME280;62742;52.136;4.500;2023-02-15T01:57:09;102948.88;;;0.60;94.79
72857;BME280;62742;52.136;4.500;2023-02-15T01:59:41;102945.38;;;0.60;95.12
72857;BME280;62742;52.136;4.500;2023-02-15T02:02:13;102947.84;;;0.58;95.50
72857;BME280;62742;52.136;4.500;2023-02-15T02:07:20;102951.97;;;0.54;95.69
72857;BME280;62742;52.136;4.500;2023-02-15T02:09:49;102946.09;;;0.57;95.39
72857;BME280;62742;52.136;4.500;2023-02-15T02:12:17;102947.16;;;0.61;95.54
72857;BME280;62742;52.136;4.500;2023-02-15T02:14:48;102937.19;;;0.67;95.32
72857;BME280;62742;52.136;4.500;2023-02-15T02:32:29;102912.22;;;0.82;94.63
72857;BME280;62742;52.136;4.500;2023-02-15T02:35:18;102907.03;;;0.82;94.85
72857;BME280;62742;52.136;4.500;2023-02-15T02:43:48;102898.88;;;1.52;93.63
72857;BME280;62742;52.136;4.500;2023-02-15T02:46:26;102892.66;;;1.98;92.41
72857;BME280;62742;52.136;4.500;2023-02-15T02:48:58;102886.91;;;1.71;92.83
72857;BME280;62742;52.136;4.500;2023-02-15T02:51:25;102890.69;;;1.44;94.30
72857;BME280;62742;52.136;4.500;2023-02-15T02:53:52;102895.38;;;1.20;95.25
72857;BME280;62742;52.136;4.500;2023-02-15T02:56:28;102889.25;;;1.35;95.13
72857;BME280;62742;52.136;4.500;2023-02-15T02:59:20;102892.16;;;1.24;95.68
72857;BME280;62742;52.136;4.500;2023-02-15T03:02:07;102879.03;;;1.69;93.56
72857;BME280;62742;52.136;4.500;2023-02-15T03:04:52;102877.47;;;1.40;93.35
72857;BME280;62742;52.136;4.500;2023-02-15T03:07:30;102878.97;;;1.20;94.86
72857;BME280;62742;52.136;4.500;2023-02-15T03:10:00;102884.16;;;1.05;95.57
72857;BME280;62742;52.136;4.500;2023-02-15T03:12:34;102881.22;;;0.99;96.19
72857;BME280;62742;52.136;4.500;2023-02-15T03:15:20;102880.44;;;1.00;96.86
72857;BME280;62742;52.136;4.500;2023-02-15T03:18:00;102876.03;;;1.14;97.07
72857;BME280;62742;52.136;4.500;2023-02-15T03:20:32;102875.69;;;1.39;95.94
72857;BME280;62742;52.136;4.500;2023-02-15T03:23:06;102864.28;;;1.52;94.58
72857;BME280;62742;52.136;4.500;2023-02-15T03:25:42;102868.41;;;1.32;94.85
72857;BME280;62742;52.136;4.500;2023-02-15T03:28:22;102863.78;;;1.11;95.38
72857;BME280;62742;52.136;4.500;2023-02-15T03:30:55;102864.91;;;1.31;95.75
72857;BME280;62742;52.136;4.500;2023-02-15T03:33:27;102855.69;;;1.36;94.76
72857;BME280;62742;52.136;4.500;2023-02-15T03:36:17;102857.88;;;1.28;94.18
72857;BME280;62742;52.136;4.500;2023-02-15T03:39:02;102860.97;;;1.06;95.52
72857;BME280;62742;52.136;4.500;2023-02-15T03:41:43;102847.78;;;0.87;95.47
72857;BME280;62742;52.136;4.500;2023-02-15T03:44:31;102842.66;;;1.35;93.97
72857;BME280;62742;52.136;4.500;2023-02-15T03:47:09;102838.47;;;0.90;93.78
72857;BME280;62742;52.136;4.500;2023-02-15T03:49:42;102835.66;;;0.71;94.82
72857;BME280;62742;52.136;4.500;2023-02-15T03:52:14;102837.47;;;0.72;95.36
72857;BME280;62742;52.136;4.500;2023-02-15T03:54:43;102841.13;;;0.61;94.97
72857;BME280;62742;52.136;4.500;2023-02-15T03:57:22;102836.22;;;0.50;95.13
72857;BME280;62742;52.136;4.500;2023-02-15T04:00:21;102832.28;;;0.42;95.86
72857;BME280;62742;52.136;4.500;2023-02-15T04:05:42;102827.97;;;0.87;94.71
72857;BME280;62742;52.136;4.500;2023-02-15T04:08:11;102825.81;;;0.95;93.71
72857;BME280;62742;52.136;4.500;2023-02-15T04:10:38;102822.44;;;1.12;92.92
72857;BME280;62742;52.136;4.500;2023-02-15T04:13:23;102816.22;;;1.09;92.71
72857;BME280;62742;52.136;4.500;2023-02-15T04:15:56;102816.84;;;1.20;92.24
72857;BME280;62742;52.136;4.500;2023-02-15T04:21:27;102811.66;;;1.20;92.39
72857;BME280;62742;52.136;4.500;2023-02-15T04:24:15;102811.13;;;1.10;92.90
72857;BME280;62742;52.136;4.500;2023-02-15T04:27:01;102812.78;;;0.93;93.74
72857;BME280;62742;52.136;4.500;2023-02-15T04:29:29;102810.06;;;1.07;93.27
72857;BME280;62742;52.136;4.500;2023-02-15T04:31:58;102813.25;;;0.71;93.63
72857;BME280;62742;52.136;4.500;2023-02-15T04:34:26;102817.56;;;0.56;94.77
72857;BME280;62742;52.136;4.500;2023-02-15T04:36:52;102818.91;;;0.49;95.52
72857;BME280;62742;52.136;4.500;2023-02-15T04:39:19;102809.63;;;0.53;96.13
72857;BME280;62742;52.136;4.500;2023-02-15T04:41:45;102818.56;;;0.43;96.03
72857;BME280;62742;52.136;4.500;2023-02-15T04:44:13;102812.69;;;0.31;96.46
72857;BME280;62742;52.136;4.500;2023-02-15T04:46:40;102819.19;;;0.24;96.44
72857;BME280;62742;52.136;4.500;2023-02-15T04:49:07;102811.09;;;0.33;96.96
72857;BME280;62742;52.136;4.500;2023-02-15T04:51:34;102809.47;;;0.35;97.43
72857;BME280;62742;52.136;4.500;2023-02-15T04:54:00;102801.44;;;0.45;97.49
72857;BME280;62742;52.136;4.500;2023-02-15T04:56:26;102797.69;;;0.40;97.07
72857;BME280;62742;52.136;4.500;2023-02-15T04:58:53;102798.56;;;0.41;97.54
72857;BME280;62742;52.136;4.500;2023-02-15T05:01:19;102801.44;;;0.45;97.52
72857;BME280;62742;52.136;4.500;2023-02-15T05:03:45;102803.56;;;0.37;97.14
72857;BME280;62742;52.136;4.500;2023-02-15T05:06:12;102802.88;;;0.40;97.35
72857;BME280;62742;52.136;4.500;2023-02-15T05:08:38;102793.59;;;0.44;97.61
72857;BME280;62742;52.136;4.500;2023-02-15T05:11:05;102792.44;;;0.39;97.50
72857;BME280;62742;52.136;4.500;2023-02-15T05:13:31;102791.78;;;0.43;97.81
72857;BME280;62742;52.136;4.500;2023-02-15T05:15:59;102786.81;;;0.46;97.87
72857;BME280;62742;52.136;4.500;2023-02-15T05:18:25;102791.25;;;0.63;97.54
72857;BME280;62742;52.136;4.500;2023-02-15T05:20:52;102795.19;;;0.57;97.26
72857;BME280;62742;52.136;4.500;2023-02-15T05:23:18;102794.66;;;0.47;97.15
72857;BME280;62742;52.136;4.500;2023-02-15T05:25:48;102785.84;;;0.29;96.86
72857;BME280;62742;52.136;4.500;2023-02-15T05:28:35;102782.72;;;0.20;97.61
72857;BME280;62742;52.136;4.500;2023-02-15T05:31:22;102789.31;;;0.14;97.71
72857;BME280;62742;52.136;4.500;2023-02-15T05:33:49;102789.84;;;0.09;97.46
72857;BME280;62742;52.136;4.500;2023-02-15T05:36:15;102790.13;;;-0.02;97.46
72857;BME280;62742;52.136;4.500;2023-02-15T05:38:42;102787.94;;;-0.09;97.17
72857;BME280;62742;52.136;4.500;2023-02-15T05:41:10;102780.38;;;-0.06;97.42
72857;BME280;62742;52.136;4.500;2023-02-15T05:43:37;102775.56;;;-0.14;97.71
72857;BME280;62742;52.136;4.500;2023-02-15T05:46:05;102773.75;;;-0.15;97.97
72857;BME280;62742;52.136;4.500;2023-02-15T05:48:33;102772.09;;;-0.15;97.80
72857;BME280;62742;52.136;4.500;2023-02-15T05:51:05;102768.97;;;-0.09;98.38
72857;BME280;62742;52.136;4.500;2023-02-15T05:53:36;102769.53;;;0.00;98.57
72857;BME280;62742;52.136;4.500;2023-02-15T05:56:05;102762.22;;;0.23;98.63
72857;BME280;62742;52.136;4.500;2023-02-15T05:58:36;102757.41;;;0.75;96.79
72857;BME280;62742;52.136;4.500;2023-02-15T06:01:15;102754.38;;;0.82;95.50
72857;BME280;62742;52.136;4.500;2023-02-15T06:03:44;102758.56;;;0.80;95.69
72857;BME280;62742;52.136;4.500;2023-02-15T06:06:11;102762.47;;;0.88;95.51
72857;BME280;62742;52.136;4.500;2023-02-15T06:08:38;102767.03;;;1.09;94.77
72857;BME280;62742;52.136;4.500;2023-02-15T06:11:05;102760.59;;;1.17;94.26
72857;BME280;62742;52.136;4.500;2023-02-15T06:13:33;102759.91;;;1.05;94.70
72857;BME280;62742;52.136;4.500;2023-02-15T06:16:00;102759.03;;;1.04;94.55
72857;BME280;62742;52.136;4.500;2023-02-15T06:18:27;102758.53;;;0.95;94.41
72857;BME280;62742;52.136;4.500;2023-02-15T06:20:53;102770.41;;;0.60;94.69
72857;BME280;62742;52.136;4.500;2023-02-15T06:23:19;102768.88;;;0.64;96.15
72857;BME280;62742;52.136;4.500;2023-02-15T06:25:46;102771.94;;;0.57;96.41
72857;BME280;62742;52.136;4.500;2023-02-15T06:28:15;102778.41;;;0.65;96.90
72857;BME280;62742;52.136;4.500;2023-02-15T06:30:41;102770.28;;;1.05;95.25
72857;BME280;62742;52.136;4.500;2023-02-15T06:33:08;102770.13;;;0.87;95.54
72857;BME280;62742;52.136;4.500;2023-02-15T06:35:34;102774.81;;;0.78;95.37
72857;BME280;62742;52.136;4.500;2023-02-15T06:38:01;102780.38;;;0.54;96.22
72857;BME280;62742;52.136;4.500;2023-02-15T06:40:28;102767.34;;;0.52;96.41
72857;BME280;62742;52.136;4.500;2023-02-15T06:42:55;102769.53;;;0.45;97.03
72857;BME280;62742;52.136;4.500;2023-02-15T06:45:21;102769.06;;;0.37;97.29
72857;BME280;62742;52.136;4.500;2023-02-15T06:47:48;102760.84;;;0.44;97.67
72857;BME280;62742;52.136;4.500;2023-02-15T06:50:14;102766.31;;;0.34;97.31
72857;BME280;62742;52.136;4.500;2023-02-15T06:52:41;102759.59;;;0.52;97.77
72857;BME280;62742;52.136;4.500;2023-02-15T06:55:09;102762.56;;;0.44;97.48
72857;BME280;62742;52.136;4.500;2023-02-15T06:57:35;102762.19;;;0.52;97.27
72857;BME280;62742;52.136;4.500;2023-02-15T07:00:02;102755.47;;;0.71;96.45
72857;BME280;62742;52.136;4.500;2023-02-15T07:02:31;102746.53;;;0.81;95.12
72857;BME280;62742;52.136;4.500;2023-02-15T07:04:57;102747.50;;;0.83;94.42
72857;BME280;62742;52.136;4.500;2023-02-15T07:07:24;102744.16;;;0.69;93.71
72857;BME280;62742;52.136;4.500;2023-02-15T07:09:50;102750.22;;;0.54;93.09
72857;BME280;62742;52.136;4.500;2023-02-15T07:12:17;102755.00;;;0.32;95.31
72857;BME280;62742;52.136;4.500;2023-02-15T07:15:07;102751.78;;;0.21;96.22
72857;BME280;62742;52.136;4.500;2023-02-15T07:17:36;102745.81;;;0.22;97.06
72857;BME280;62742;52.136;4.500;2023-02-15T07:20:09;102742.22;;;0.50;96.93
72857;BME280;62742;52.136;4.500;2023-02-15T07:22:38;102746.56;;;0.66;95.35
72857;BME280;62742;52.136;4.500;2023-02-15T07:25:08;102742.50;;;0.86;94.30
72857;BME280;62742;52.136;4.500;2023-02-15T07:27:35;102735.44;;;0.83;93.69
72857;BME280;62742;52.136;4.500;2023-02-15T07:30:03;102727.75;;;0.68;94.89
72857;BME280;62742;52.136;4.500;2023-02-15T07:32:31;102727.38;;;0.77;94.89
72857;BME280;62742;52.136;4.500;2023-02-15T07:34:59;102732.84;;;0.83;94.94
72857;BME280;62742;52.136;4.500;2023-02-15T07:37:28;102726.44;;;0.60;95.13
72857;BME280;62742;52.136;4.500;2023-02-15T07:39:55;102722.13;;;0.61;96.24
72857;BME280;62742;52.136;4.500;2023-02-15T07:42:22;102721.47;;;0.65;96.72
72857;BME280;62742;52.136;4.500;2023-02-15T07:44:49;102731.69;;;0.62;96.75
72857;BME280;62742;52.136;4.500;2023-02-15T07:47:16;102734.09;;;0.59;96.83
72857;BME280;62742;52.136;4.500;2023-02-15T07:49:42;102732.31;;;0.58;96.85
72857;BME280;62742;52.136;4.500;2023-02-15T07:52:10;102734.59;;;0.68;97.36
72857;BME280;62742;52.136;4.500;2023-02-15T07:54:37;102732.97;;;0.70;97.18
72857;BME280;62742;52.136;4.500;2023-02-15T07:57:04;102718.94;;;0.81;97.38
72857;BME280;62742;52.136;4.500;2023-02-15T07:59:31;102713.66;;;0.95;97.14
72857;BME280;62742;52.136;4.500;2023-02-15T08:01:57;102718.06;;;0.97;97.20
72857;BME280;62742;52.136;4.500;2023-02-15T08:04:24;102721.88;;;1.04;97.32
72857;BME280;62742;52.136;4.500;2023-02-15T08:06:53;102711.31;;;1.16;97.23
72857;BME280;62742;52.136;4.500;2023-02-15T08:09:22;102712.50;;;1.55;95.72
72857;BME280;62742;52.136;4.500;2023-02-15T08:11:49;102715.84;;;1.36;95.36
72857;BME280;62742;52.136;4.500;2023-02-15T08:14:20;102706.94;;;1.31;95.97
72857;BME280;62742;52.136;4.500;2023-02-15T08:16:53;102713.34;;;1.38;96.53
72857;BME280;62742;52.136;4.500;2023-02-15T08:19:27;102715.22;;;1.40;96.59
72857;BME280;62742;52.136;4.500;2023-02-15T08:21:58;102715.13;;;1.39;96.61
72857;BME280;62742;52.136;4.500;2023-02-15T08:24:29;102710.13;;;1.42;96.76
72857;BME280;62742;52.136;4.500;2023-02-15T08:26:57;102716.56;;;1.50;96.55
72857;BME280;62742;52.136;4.500;2023-02-15T08:29:28;102707.97;;;1.67;96.28
72857;BME280;62742;52.136;4.500;2023-02-15T08:32:00;102708.44;;;1.77;96.38
72857;BME280;62742;52.136;4.500;2023-02-15T08:34:30;102713.34;;;1.89;95.84
72857;BME280;62742;52.136;4.500;2023-02-15T08:36:59;102707.34;;;1.90;95.48
72857;BME280;62742;52.136;4.500;2023-02-15T08:39:26;102706.19;;;2.01;96.55
72857;BME280;62742;52.136;4.500;2023-02-15T08:41:53;102710.78;;;2.06;96.11
72857;BME280;62742;52.136;4.500;2023-02-15T08:44:20;102708.34;;;2.10;96.58
72857;BME280;62742;52.136;4.500;2023-02-15T08:46:48;102702.00;;;2.21;97.04
72857;BME280;62742;52.136;4.500;2023-02-15T08:49:18;102699.63;;;2.43;96.20
72857;BME280;62742;52.136;4.500;2023-02-15T08:51:47;102704.94;;;2.47;95.66
72857;BME280;62742;52.136;4.500;2023-02-15T08:54:18;102705.44;;;2.57;95.93
72857;BME280;62742;52.136;4.500;2023-02-15T08:56:47;102701.44;;;2.64;96.34
72857;BME280;62742;52.136;4.500;2023-02-15T08:59:19;102703.44;;;2.70;95.80
72857;BME280;62742;52.136;4.500;2023-02-15T09:01:49;102712.31;;;2.93;94.73
72857;BME280;62742;52.136;4.500;2023-02-15T09:04:17;102710.94;;;3.01;94.73
72857;BME280;62742;52.136;4.500;2023-02-15T09:06:46;102715.47;;;3.05;95.29
72857;BME280;62742;52.136;4.500;2023-02-15T09:09:15;102718.75;;;3.21;94.74
72857;BME280;62742;52.136;4.500;2023-02-15T09:11:45;102700.66;;;3.42;93.05
72857;BME280;62742;52.136;4.500;2023-02-15T09:14:18;102698.38;;;3.49;92.32
72857;BME280;62742;52.136;4.500;2023-02-15T09:16:47;102693.97;;;3.48;93.79
72857;BME280;62742;52.136;4.500;2023-02-15T09:19:18;102694.22;;;3.74;92.58
72857;BME280;62742;52.136;4.500;2023-02-15T09:21:47;102690.50;;;3.88;90.97
72857;BME280;62742;52.136;4.500;2023-02-15T09:24:15;102695.56;;;3.85;92.32
72857;BME280;62742;52.136;4.500;2023-02-15T09:26:45;102698.00;;;4.02;92.91
72857;BME280;62742;52.136;4.500;2023-02-15T09:29:15;102689.84;;;4.36;91.89
72857;BME280;62742;52.136;4.500;2023-02-15T09:31:46;102688.38;;;4.65;90.85
72857;BME280;62742;52.136;4.500;2023-02-15T09:34:16;102683.44;;;4.72;91.14
72857;BME280;62742;52.136;4.500;2023-02-15T09:36:45;102681.28;;;4.84;90.64
72857;BME280;62742;52.136;4.500;2023-02-15T09:39:20;102685.88;;;4.91;90.88
72857;BME280;62742;52.136;4.500;2023-02-15T09:42:10;102684.72;;;5.07;90.71
72857;BME280;62742;52.136;4.500;2023-02-15T09:45:48;102681.66;;;5.41;88.45
72857;BME280;62742;52.136;4.500;2023-02-15T09:51:19;102688.34;;;5.59;89.43
72857;BME280;62742;52.136;4.500;2023-02-15T09:57:01;102670.97;;;5.85;88.40
72857;BME280;62742;52.136;4.500;2023-02-15T10:20:56;102662.09;;;7.22;85.60
72857;BME280;62742;52.136;4.500;2023-02-15T10:23:47;102682.63;;;7.39;85.94
72857;BME280;62742;52.136;4.500;2023-02-15T10:26:47;102670.66;;;7.47;85.55
72857;BME280;62742;52.136;4.500;2023-02-15T10:35:03;102661.53;;;8.01;83.84
72857;BME280;62742;52.136;4.500;2023-02-15T10:40:37;102656.59;;;8.12;84.74
72857;BME280;62742;52.136;4.500;2023-02-15T10:46:17;102636.53;;;8.50;81.81
72857;BME280;62742;52.136;4.500;2023-02-15T10:49:04;102642.22;;;8.70;82.13
72857;BME280;62742;52.136;4.500;2023-02-15T10:55:26;102617.88;;;9.22;80.78
72857;BME280;62742;52.136;4.500;2023-02-15T11:06:49;102598.34;;;10.08;75.84
72857;BME280;62742;52.136;4.500;2023-02-15T11:09:21;102597.91;;;10.38;74.60
72857;BME280;62742;52.136;4.500;2023-02-15T11:11:53;102602.97;;;10.26;76.62
72857;BME280;62742;52.136;4.500;2023-02-15T11:14:39;102604.03;;;10.36;76.22
72857;BME280;62742;52.136;4.500;2023-02-15T11:17:21;102607.47;;;10.32;74.69
72857;BME280;62742;52.136;4.500;2023-02-15T11:20:31;102599.97;;;10.59;68.78
72857;BME280;62742;52.136;4.500;2023-02-15T11:23:13;102605.97;;;10.49;68.75
72857;BME280;62742;52.136;4.500;2023-02-15T11:25:45;102601.56;;;10.48;69.53
72857;BME280;62742;52.136;4.500;2023-02-15T11:28:24;102603.28;;;10.46;68.21
72857;BME280;62742;52.136;4.500;2023-02-15T11:30:58;102606.03;;;10.55;69.40
72857;BME280;62742;52.136;4.500;2023-02-15T11:33:40;102603.50;;;10.61;69.25
72857;BME280;62742;52.136;4.500;2023-02-15T11:36:16;102599.75;;;10.42;70.63
72857;BME280;62742;52.136;4.500;2023-02-15T11:38:50;102611.28;;;10.55;70.37
72857;BME280;62742;52.136;4.500;2023-02-15T11:41:28;102602.66;;;10.65;69.28
72857;BME280;62742;52.136;4.500;2023-02-15T11:44:10;102595.06;;;10.89;68.08
72857;BME280;62742;52.136;4.500;2023-02-15T11:46:45;102578.53;;;11.00;66.63
72857;BME280;62742;52.136;4.500;2023-02-15T11:49:22;102569.78;;;11.04;67.35
72857;BME280;62742;52.136;4.500;2023-02-15T11:51:58;102565.59;;;11.23;65.80
72857;BME280;62742;52.136;4.500;2023-02-15T11:54:30;102570.91;;;11.28;64.93
72857;BME280;62742;52.136;4.500;2023-02-15T11:59:50;102578.06;;;11.41;66.46
72857;BME280;62742;52.136;4.500;2023-02-15T12:02:26;102578.00;;;11.35;65.36
72857;BME280;62742;52.136;4.500;2023-02-15T12:05:02;102580.69;;;11.41;65.89
72857;BME280;62742;52.136;4.500;2023-02-15T12:07:42;102569.47;;;11.64;65.72
72857;BME280;62742;52.136;4.500;2023-02-15T12:12:40;102560.97;;;11.99;62.32
72857;BME280;62742;52.136;4.500;2023-02-15T12:15:09;102563.72;;;12.19;62.08
72857;BME280;62742;52.136;4.500;2023-02-15T12:17:52;102557.44;;;11.98;63.48
72857;BME280;62742;52.136;4.500;2023-02-15T12:20:32;102566.25;;;11.97;64.21
72857;BME280;62742;52.136;4.500;2023-02-15T12:23:06;102557.50;;;12.11;64.67
72857;BME280;62742;52.136;4.500;2023-02-15T12:25:49;102555.72;;;12.04;64.04
72857;BME280;62742;52.136;4.500;2023-02-15T12:28:23;102554.97;;;12.29;63.01
72857;BME280;62742;52.136;4.500;2023-02-15T12:31:07;102555.81;;;12.14;63.73
72857;BME280;62742;52.136;4.500;2023-02-15T12:33:57;102560.16;;;12.12;64.41
72857;BME280;62742;52.136;4.500;2023-02-15T12:36:34;102553.25;;;12.30;62.42
72857;BME280;62742;52.136;4.500;2023-02-15T12:41:38;102544.34;;;12.06;63.53
72857;BME280;62742;52.136;4.500;2023-02-15T12:49:43;102540.94;;;12.29;61.13
72857;BME280;62742;52.136;4.500;2023-02-15T12:52:29;102540.94;;;12.32;61.35
72857;BME280;62742;52.136;4.500;2023-02-15T12:55:10;102542.78;;;12.45;61.18
72857;BME280;62742;52.136;4.500;2023-02-15T12:57:44;102542.78;;;12.51;61.55
72857;BME280;62742;52.136;4.500;2023-02-15T13:02:50;102531.44;;;12.69;59.82
72857;BME280;62742;52.136;4.500;2023-02-15T13:05:28;102527.91;;;12.64;60.04
72857;BME280;62742;52.136;4.500;2023-02-15T13:08:08;102522.59;;;12.58;60.15
72857;BME280;62742;52.136;4.500;2023-02-15T13:10:56;102520.81;;;12.51;59.40
72857;BME280;62742;52.136;4.500;2023-02-15T13:13:27;102516.44;;;12.58;60.75
72857;BME280;62742;52.136;4.500;2023-02-15T13:15:59;102522.63;;;12.73;59.71
72857;BME280;62742;52.136;4.500;2023-02-15T13:21:13;102520.84;;;12.62;60.05
72857;BME280;62742;52.136;4.500;2023-02-15T13:23:48;102525.22;;;12.50;61.15
72857;BME280;62742;52.136;4.500;2023-02-15T13:26:21;102521.69;;;12.45;61.70
72857;BME280;62742;52.136;4.500;2023-02-15T13:29:08;102514.69;;;12.60;60.00
72857;BME280;62742;52.136;4.500;2023-02-15T13:31:50;102501.47;;;12.53;59.35
72857;BME280;62742;52.136;4.500;2023-02-15T13:34:36;102506.72;;;12.41;60.06
72857;BME280;62742;52.136;4.500;2023-02-15T13:46:27;102476.88;;;12.53;61.35
72857;BME280;62742;52.136;4.500;2023-02-15T13:55:23;102474.28;;;12.75;59.40
72857;BME280;62742;52.136;4.500;2023-02-15T14:02:16;102476.84;;;12.51;61.46
72857;BME280;62742;52.136;4.500;2023-02-15T14:05:29;102467.22;;;12.63;60.32
72857;BME280;62742;52.136;4.500;2023-02-15T14:11:21;102469.91;;;13.18;59.65
72857;BME280;62742;52.136;4.500;2023-02-15T14:26:03;102473.44;;;13.19;59.47
72857;BME280;62742;52.136;4.500;2023-02-15T14:31:15;102476.94;;;13.13;58.39
72857;BME280;62742;52.136;4.500;2023-02-15T14:33:55;102477.78;;;12.73;60.21
72857;BME280;62742;52.136;4.500;2023-02-15T14:36:24;102476.91;;;12.71;61.14
72857;BME280;62742;52.136;4.500;2023-02-15T14:42:49;102477.78;;;12.69;60.23
72857;BME280;62742;52.136;4.500;2023-02-15T14:45:41;102480.34;;;12.41;61.11
72857;BME280;62742;52.136;4.500;2023-02-15T14:48:20;102477.75;;;12.60;60.72
72857;BME280;62742;52.136;4.500;2023-02-15T14:50:51;102474.22;;;12.42;61.90
72857;BME280;62742;52.136;4.500;2023-02-15T14:53:37;102480.38;;;12.57;59.67
72857;BME280;62742;52.136;4.500;2023-02-15T14:58:37;102475.06;;;12.35;60.52
72857;BME280;62742;52.136;4.500;2023-02-15T15:01:06;102468.88;;;12.27;61.39
72857;BME280;62742;52.136;4.500;2023-02-15T15:03:36;102473.25;;;12.22;61.60
72857;BME280;62742;52.136;4.500;2023-02-15T15:06:33;102464.44;;;12.15;62.46
72857;BME280;62742;52.136;4.500;2023-02-15T15:09:21;102475.84;;;12.08;62.73
72857;BME280;62742;52.136;4.500;2023-02-15T15:12:14;102464.34;;;11.96;62.32
72857;BME280;62742;52.136;4.500;2023-02-15T15:15:02;102460.75;;;11.82;63.17
72857;BME280;62742;52.136;4.500;2023-02-15T15:20:02;102461.72;;;11.95;62.53
72857;BME280;62742;52.136;4.500;2023-02-15T15:22:42;102456.38;;;11.84;62.84
72857;BME280;62742;52.136;4.500;2023-02-15T15:25:10;102453.75;;;11.89;62.66
72857;BME280;62742;52.136;4.500;2023-02-15T15:27:57;102458.03;;;11.70;64.40
72857;BME280;62742;52.136;4.500;2023-02-15T15:33:20;102459.69;;;11.54;65.06
72857;BME280;62742;52.136;4.500;2023-02-15T15:45:41;102449.97;;;11.44;64.45
72857;BME280;62742;52.136;4.500;2023-02-15T15:48:36;102442.97;;;11.47;65.16
72857;BME280;62742;52.136;4.500;2023-02-15T15:53:41;102445.44;;;11.21;66.30
72857;BME280;62742;52.136;4.500;2023-02-15T15:56:19;102443.75;;;11.29;65.93
72857;BME280;62742;52.136;4.500;2023-02-15T15:58:58;102439.22;;;11.14;65.88
72857;BME280;62742;52.136;4.500;2023-02-15T16:02:07;102434.72;;;11.01;66.89
72857;BME280;62742;52.136;4.500;2023-02-15T16:04:44;102445.22;;;10.98;66.86
72857;BME280;62742;52.136;4.500;2023-02-15T16:10:02;102445.94;;;10.78;67.55
72857;BME280;62742;52.136;4.500;2023-02-15T16:12:33;102431.81;;;10.69;67.57
72857;BME280;62742;52.136;4.500;2023-02-15T16:15:15;102437.97;;;10.71;67.77